Accueil
METAR-TAF:

METAR-TAF

Aéroports :

Aéroport de Bratsk

Bratsk, Russie

latitude: 56-22-15N, longitude: 101-41-55E, altitude: 490 m

Observation

Le bulletin a été fait il y a 38 minutes, à 13:30 UTC
Vent 6 kt de est/sud-est
Température 11°C
Humidité 25%
Pression 1020 hPa
Visibilité 10 km ou plus

METAR: UIBB 091330Z 11003MPS 9999 NSC 11/M08 Q1020 R12/60D NOSIG RMK QFE722/0963

Heure: 22:08 (14:08 UTC)

Prévision

Le bulletin a été fait il y a 3 heures et 8 minutes, à 11:00 UTC
Prévision valable du 09 à 12 UTC au 10 à 12 UTC
Vent 6 kt de sud/sud-est
Visibilité 10 km ou plus
Nuages épars à une hauteur de 3000 ft, Cumulonimbus.
Evoluant progressivement
du 09 à 17 UTC au 09 à 19 UTC
Vent 10 kt de nord/nord-ouest avec des rafales jusqu'à 23 kt

TAF: UIBB 091100Z 0912/1012 16003MPS 9999 SCT030CB BECMG 0917/0919 33005G12MPS

Observations et prévisions météorologiques de plus de 4000 aéroports (messages METAR et TAF).

Les stations disponibles sont représentées par des disques jaunes et rouges sur la carte.

Passer la souris dessus pour voir le nom de la station.

Cliquer dessus pour voir les observations et prévisions météorologiques.

Pour changer de carte: cliquez sur les boutons verts avec une croix noire pour zoomer, sur le bouton vert avec un tiret pour effectuer un zoom arrière, ou sur les flèches vertes pour les cartes adjacentes.


METAR-TAF: